Time;durP1;ratioP1;P1;durP2;ratioP2;P2;SDS_P1;SDS_P2;PMS_P1;PMS_P2;Temp;Humidity;BMP_temperature;BMP_pressure;BME280_temperature;BME280_humidity;BME280_pressure;Samples;Min_cycle;Max_cycle;Signal;HPM_P1;HPM_P2
2022/01/24 00:05:27;;;;;;;15.75;7.03;;;;;;;;;;4991787;23;20268;-85
2022/01/24 00:07:55;;;;;;;17.90;7.57;;;;;;;;;;4986012;28;20104;-86
2022/01/24 00:10:26;;;;;;;15.85;7.50;;;;;;;;;;4982572;28;20130;-86
2022/01/24 00:14:05;;;;;;;13.45;6.25;;;;;;;;;;4983905;28;20039;-86
2022/01/24 00:16:33;;;;;;;16.70;6.60;;;;;;;;;;4965223;28;20513;-85
2022/01/24 00:28:20;;;;;;;10.85;5.68;;;;;;;;;;4966632;28;20898;-85
2022/01/24 00:30:49;;;;;;;15.20;6.00;;;;;;;;;;4979952;28;20907;-85
2022/01/24 00:33:19;;;;;;;16.10;7.00;;;;;;;;;;4984639;28;20056;-85
2022/01/24 00:35:47;;;;;;;13.90;6.10;;;;;;;;;;4999874;28;20120;-85
2022/01/24 00:38:14;;;;;;;12.30;6.35;;;;;;;;;;4981846;28;20058;-85
2022/01/24 00:40:46;;;;;;;12.23;6.13;;;;;;;;;;4949691;28;20050;-85
2022/01/24 00:43:29;;;;;;;10.80;5.53;;;;;;;;;;4973679;28;20104;-86
2022/01/24 00:46:06;;;;;;;12.05;4.63;;;;;;;;;;4981386;28;20038;-86
2022/01/24 00:49:14;;;;;;;12.23;5.68;;;;;;;;;;4952187;28;20051;-86
2022/01/24 00:55:44;;;;;;;11.32;4.88;;;;;;;;;;5051660;28;20071;-85
2022/01/24 00:58:13;;;;;;;13.57;6.22;;;;;;;;;;5019406;28;20037;-85
2022/01/24 01:00:43;;;;;;;13.88;4.90;;;;;;;;;;5012013;28;20091;-85
2022/01/24 01:03:17;;;;;;;10.90;5.60;;;;;;;;;;5002883;28;20049;-86
2022/01/24 01:06:00;;;;;;;14.80;5.85;;;;;;;;;;4991218;28;20073;-86
2022/01/24 01:18:29;;;;;;;13.93;6.38;;;;;;;;;;5004637;28;20140;-85
2022/01/24 01:23:29;;;;;;;11.77;6.47;;;;;;;;;;5023896;28;20045;-85
2022/01/24 01:25:59;;;;;;;12.13;6.40;;;;;;;;;;5003961;28;20103;-85
2022/01/24 01:28:28;;;;;;;17.67;6.72;;;;;;;;;;5015567;28;20069;-85
2022/01/24 01:31:01;;;;;;;13.85;6.55;;;;;;;;;;5017924;28;20029;-85
2022/01/24 01:33:53;;;;;;;13.70;6.40;;;;;;;;;;5005421;28;20060;-85
2022/01/24 01:36:37;;;;;;;13.50;6.50;;;;;;;;;;5017379;28;20139;-85
2022/01/24 01:39:38;;;;;;;14.95;6.97;;;;;;;;;;5005676;28;20045;-86
2022/01/24 01:55:10;;;;;;;13.73;5.70;;;;;;;;;;5017763;28;20115;-86
2022/01/24 01:57:38;;;;;;;11.95;5.70;;;;;;;;;;4989935;28;20045;-86
2022/01/24 02:00:06;;;;;;;14.70;5.95;;;;;;;;;;5018745;28;20048;-86
2022/01/24 02:02:53;;;;;;;11.75;5.60;;;;;;;;;;5011024;28;20049;-86
2022/01/24 02:05:22;;;;;;;12.10;5.07;;;;;;;;;;5005138;28;20148;-85
2022/01/24 02:07:51;;;;;;;12.70;5.47;;;;;;;;;;5004825;28;20110;-86
2022/01/24 02:10:21;;;;;;;12.02;5.80;;;;;;;;;;4989343;28;20733;-86
2022/01/24 02:13:14;;;;;;;10.75;5.47;;;;;;;;;;4991651;28;20045;-86
2022/01/24 02:16:03;;;;;;;14.43;6.10;;;;;;;;;;4992719;28;20052;-86
2022/01/24 02:18:41;;;;;;;13.07;5.50;;;;;;;;;;5005918;28;20088;-85
2022/01/24 02:25:32;;;;;;;10.88;4.95;;;;;;;;;;5020485;28;20048;-86
2022/01/24 02:28:02;;;;;;;18.00;5.93;;;;;;;;;;5019619;28;20092;-86
2022/01/24 02:33:17;;;;;;;14.23;5.00;;;;;;;;;;5005478;28;20083;-86
2022/01/24 02:35:45;;;;;;;11.90;5.63;;;;;;;;;;5001292;28;20048;-86
2022/01/24 02:39:07;;;;;;;13.07;6.20;;;;;;;;;;5021387;28;20416;-86
2022/01/24 02:53:17;;;;;;;14.15;5.68;;;;;;;;;;4932872;28;20421;-85
2022/01/24 02:55:45;;;;;;;12.30;5.55;;;;;;;;;;4927676;28;20047;-85
2022/01/24 02:58:13;;;;;;;11.90;5.68;;;;;;;;;;4940086;28;20051;-86
2022/01/24 03:00:42;;;;;;;12.25;6.32;;;;;;;;;;4946608;28;20621;-85
2022/01/24 03:03:12;;;;;;;11.52;5.93;;;;;;;;;;4942634;28;20053;-86
2022/01/24 03:05:41;;;;;;;14.23;6.72;;;;;;;;;;4930124;28;20107;-86
2022/01/24 03:08:10;;;;;;;12.05;6.03;;;;;;;;;;4925654;28;20162;-86
2022/01/24 03:10:41;;;;;;;11.32;5.50;;;;;;;;;;4911170;28;20055;-86
2022/01/24 03:15:39;;;;;;;13.13;5.38;;;;;;;;;;4947032;28;20133;-86
2022/01/24 03:18:08;;;;;;;11.43;5.47;;;;;;;;;;4948134;28;20171;-86
2022/01/24 03:20:36;;;;;;;12.27;5.65;;;;;;;;;;4945578;28;20066;-86
2022/01/24 03:23:21;;;;;;;10.25;5.00;;;;;;;;;;4920664;29;20391;-86
2022/01/24 03:25:50;;;;;;;11.93;5.50;;;;;;;;;;5005623;28;20103;-86
2022/01/24 03:28:23;;;;;;;12.27;6.13;;;;;;;;;;4991730;28;20050;-85
2022/01/24 03:30:51;;;;;;;9.73;4.95;;;;;;;;;;4991700;28;20505;-86
2022/01/24 03:33:19;;;;;;;12.25;5.90;;;;;;;;;;5020216;28;20051;-85
2022/01/24 03:35:49;;;;;;;11.93;5.45;;;;;;;;;;4991954;28;20552;-85
2022/01/24 03:38:17;;;;;;;11.35;6.10;;;;;;;;;;4992968;28;20120;-86
2022/01/24 03:40:45;;;;;;;14.93;5.57;;;;;;;;;;5005700;28;20041;-85
2022/01/24 03:43:13;;;;;;;10.82;5.15;;;;;;;;;;5025474;28;20544;-86
2022/01/24 03:45:47;;;;;;;9.73;4.88;;;;;;;;;;5009168;28;20045;-86
2022/01/24 03:48:37;;;;;;;10.63;4.93;;;;;;;;;;5007594;28;20077;-86
2022/01/24 03:55:11;;;;;;;10.00;4.70;;;;;;;;;;4309115;26;20046;-86
2022/01/24 03:57:39;;;;;;;10.05;4.43;;;;;;;;;;4949403;28;21035;-86
2022/01/24 04:00:08;;;;;;;10.02;5.30;;;;;;;;;;4968354;28;20066;-86
2022/01/24 04:03:00;;;;;;;12.88;4.43;;;;;;;;;;4981829;28;20050;-85
2022/01/24 04:05:29;;;;;;;9.90;4.93;;;;;;;;;;4967124;28;20042;-85
2022/01/24 04:07:57;;;;;;;10.35;4.43;;;;;;;;;;4983764;28;20405;-85
2022/01/24 04:10:27;;;;;;;9.55;4.80;;;;;;;;;;4955311;28;20038;-85
2022/01/24 04:13:08;;;;;;;10.52;5.18;;;;;;;;;;4985543;28;20042;-86
2022/01/24 04:15:47;;;;;;;10.45;4.90;;;;;;;;;;4961760;28;20053;-86
2022/01/24 04:24:50;;;;;;;11.38;4.95;;;;;;;;;;4980893;28;20112;-85
2022/01/24 04:27:17;;;;;;;11.82;5.15;;;;;;;;;;4986660;28;20054;-85
2022/01/24 04:29:45;;;;;;;15.15;6.25;;;;;;;;;;4983031;28;20051;-86
2022/01/24 04:32:53;;;;;;;10.77;5.57;;;;;;;;;;4955435;28;20049;-86
2022/01/24 04:35:23;;;;;;;12.18;5.15;;;;;;;;;;4941162;28;20056;-85
2022/01/24 04:37:51;;;;;;;12.07;5.30;;;;;;;;;;4971105;28;20050;-86
2022/01/24 04:40:19;;;;;;;13.20;5.93;;;;;;;;;;4965492;28;20150;-86
2022/01/24 04:43:33;;;;;;;11.30;5.53;;;;;;;;;;4973256;28;20097;-85
2022/01/24 04:46:19;;;;;;;14.07;5.60;;;;;;;;;;4982707;28;20039;-86
2022/01/24 04:50:37;;;;;;;15.52;5.53;;;;;;;;;;4984490;28;20045;-86
2022/01/24 04:55:35;;;;;;;10.95;5.05;;;;;;;;;;4970459;28;20277;-86
2022/01/24 04:58:03;;;;;;;9.60;4.57;;;;;;;;;;4981485;28;20668;-86
2022/01/24 05:00:31;;;;;;;12.05;5.03;;;;;;;;;;4968115;28;20052;-86
2022/01/24 05:02:59;;;;;;;12.88;5.40;;;;;;;;;;4989094;28;21770;-86
2022/01/24 05:05:28;;;;;;;13.52;5.85;;;;;;;;;;4936868;28;20404;-86
2022/01/24 05:07:55;;;;;;;13.02;5.88;;;;;;;;;;4968684;28;20097;-86
2022/01/24 05:10:32;;;;;;;13.52;5.95;;;;;;;;;;4967136;28;20062;-86
2022/01/24 05:25:29;;;;;;;16.48;5.57;;;;;;;;;;4981110;28;20101;-86
2022/01/24 05:27:57;;;;;;;13.40;5.82;;;;;;;;;;4983952;28;20034;-86
2022/01/24 05:30:25;;;;;;;12.65;5.88;;;;;;;;;;4968205;28;20058;-86
2022/01/24 05:33:00;;;;;;;12.07;5.25;;;;;;;;;;4952922;28;20101;-86
2022/01/24 05:35:31;;;;;;;14.48;6.80;;;;;;;;;;4952781;28;20763;-86
2022/01/24 05:37:59;;;;;;;12.95;5.72;;;;;;;;;;4951536;28;20776;-86
2022/01/24 05:40:27;;;;;;;11.77;5.75;;;;;;;;;;4981479;28;20049;-86
2022/01/24 05:43:08;;;;;;;14.25;6.22;;;;;;;;;;4955795;28;20049;-86
2022/01/24 05:45:41;;;;;;;14.95;6.18;;;;;;;;;;4951103;28;20906;-86
2022/01/24 05:48:09;;;;;;;11.48;5.95;;;;;;;;;;4962099;28;20043;-86
2022/01/24 05:50:37;;;;;;;15.75;5.63;;;;;;;;;;4981561;28;20080;-86
2022/01/24 05:53:14;;;;;;;13.18;6.70;;;;;;;;;;4953690;28;20042;-86
2022/01/24 05:55:47;;;;;;;11.93;5.38;;;;;;;;;;4957581;28;20035;-86
2022/01/24 05:58:15;;;;;;;13.52;6.75;;;;;;;;;;4968968;28;20049;-86
2022/01/24 06:00:44;;;;;;;14.55;6.43;;;;;;;;;;4984709;28;20065;-86
2022/01/24 06:03:13;;;;;;;15.55;6.50;;;;;;;;;;4966571;28;20046;-86
2022/01/24 06:05:41;;;;;;;15.27;5.45;;;;;;;;;;4993050;28;20046;-86
2022/01/24 06:08:09;;;;;;;13.00;6.43;;;;;;;;;;4974720;28;20112;-86
2022/01/24 06:10:38;;;;;;;15.63;6.32;;;;;;;;;;4973437;28;20043;-86
2022/01/24 06:13:06;;;;;;;15.13;5.53;;;;;;;;;;4967445;28;20046;-86
2022/01/24 06:15:35;;;;;;;14.50;6.03;;;;;;;;;;4950710;28;20121;-86
2022/01/24 06:18:03;;;;;;;15.70;7.13;;;;;;;;;;4949642;28;20039;-87
2022/01/24 06:20:31;;;;;;;20.35;6.55;;;;;;;;;;4955880;28;20054;-87
2022/01/24 06:23:08;;;;;;;15.90;7.20;;;;;;;;;;4953070;28;20123;-87
2022/01/24 06:25:43;;;;;;;15.65;6.93;;;;;;;;;;4957040;28;20054;-86
2022/01/24 06:28:12;;;;;;;15.25;6.78;;;;;;;;;;4977503;28;20049;-86
2022/01/24 06:30:39;;;;;;;12.77;6.32;;;;;;;;;;4969103;28;21599;-86
2022/01/24 06:33:09;;;;;;;15.23;6.47;;;;;;;;;;4951903;28;20073;-86
2022/01/24 06:35:39;;;;;;;16.60;7.28;;;;;;;;;;4961357;28;20051;-86
2022/01/24 06:38:07;;;;;;;15.25;7.32;;;;;;;;;;4946312;28;20042;-86
2022/01/24 06:40:35;;;;;;;13.00;6.50;;;;;;;;;;4966182;28;20056;-86
2022/01/24 06:43:09;;;;;;;15.95;7.13;;;;;;;;;;4970973;28;20461;-86
2022/01/24 06:45:57;;;;;;;14.90;6.30;;;;;;;;;;4963138;28;20038;-87
2022/01/24 06:48:25;;;;;;;18.83;6.90;;;;;;;;;;4982514;28;20394;-87
2022/01/24 06:50:53;;;;;;;17.83;6.85;;;;;;;;;;4951472;28;20113;-87
2022/01/24 06:53:23;;;;;;;17.95;6.38;;;;;;;;;;4951878;28;20138;-87
2022/01/24 06:55:51;;;;;;;17.52;7.10;;;;;;;;;;4966964;28;20061;-87
2022/01/24 06:58:19;;;;;;;17.60;6.70;;;;;;;;;;4969071;28;20189;-87
2022/01/24 07:00:49;;;;;;;15.60;6.45;;;;;;;;;;4970974;28;20837;-87
2022/01/24 07:03:17;;;;;;;22.70;7.32;;;;;;;;;;4937832;28;20046;-86
2022/01/24 07:05:51;;;;;;;20.65;7.55;;;;;;;;;;4966403;28;20050;-86
2022/01/24 07:08:19;;;;;;;20.50;8.80;;;;;;;;;;4968044;28;20906;-86
2022/01/24 07:10:47;;;;;;;24.30;9.43;;;;;;;;;;4949357;28;20046;-87
2022/01/24 07:13:21;;;;;;;25.75;10.05;;;;;;;;;;4952718;28;20100;-86
2022/01/24 07:15:53;;;;;;;22.83;9.13;;;;;;;;;;4950786;28;20049;-86
2022/01/24 07:21:04;;;;;;;30.23;10.23;;;;;;;;;;4967988;28;20050;-87
2022/01/24 07:24:31;;;;;;;23.88;9.30;;;;;;;;;;4908829;29;20464;-87
2022/01/24 07:26:59;;;;;;;26.73;10.45;;;;;;;;;;4906382;29;20056;-87
2022/01/24 07:33:30;;;;;;;23.42;8.95;;;;;;;;;;4960602;28;20583;-82
2022/01/24 07:35:59;;;;;;;26.25;9.68;;;;;;;;;;4964819;28;20046;-81
2022/01/24 07:38:27;;;;;;;23.77;8.80;;;;;;;;;;4947619;28;20496;-80
2022/01/24 07:40:56;;;;;;;20.80;8.48;;;;;;;;;;4948224;28;20097;-81
2022/01/24 07:43:23;;;;;;;25.83;9.32;;;;;;;;;;4963887;28;20043;-80
2022/01/24 07:45:51;;;;;;;22.85;9.20;;;;;;;;;;4963473;28;20090;-80
2022/01/24 07:48:19;;;;;;;23.38;9.05;;;;;;;;;;4944914;28;20217;-79
2022/01/24 07:50:47;;;;;;;23.42;9.00;;;;;;;;;;4966365;28;20085;-80
2022/01/24 07:53:16;;;;;;;23.92;9.88;;;;;;;;;;4965902;28;20035;-81
2022/01/24 07:56:04;;;;;;;24.30;9.27;;;;;;;;;;4964206;28;20051;-79
2022/01/24 07:58:31;;;;;;;25.52;9.65;;;;;;;;;;4950767;28;20058;-81
2022/01/24 08:00:59;;;;;;;31.38;11.13;;;;;;;;;;4964629;28;20532;-80
2022/01/24 08:03:27;;;;;;;30.27;10.90;;;;;;;;;;4968979;28;20039;-81
2022/01/24 08:05:55;;;;;;;23.20;9.93;;;;;;;;;;4951733;28;20125;-81
2022/01/24 08:08:23;;;;;;;29.27;11.63;;;;;;;;;;4967798;28;20062;-81
2022/01/24 08:10:51;;;;;;;31.45;12.10;;;;;;;;;;4949924;28;20053;-80
2022/01/24 08:13:19;;;;;;;27.23;10.18;;;;;;;;;;4966408;28;20042;-81
2022/01/24 08:15:47;;;;;;;30.80;12.05;;;;;;;;;;4971172;28;20085;-80
2022/01/24 08:18:15;;;;;;;33.15;12.07;;;;;;;;;;4952157;28;20069;-80
2022/01/24 08:20:43;;;;;;;37.65;13.10;;;;;;;;;;4936676;28;20066;-80
2022/01/24 08:23:12;;;;;;;34.50;13.43;;;;;;;;;;4952894;28;20056;-80
2022/01/24 08:25:39;;;;;;;40.63;13.98;;;;;;;;;;4970028;28;20949;-82
2022/01/24 08:28:07;;;;;;;38.17;14.07;;;;;;;;;;4966625;28;20042;-80
2022/01/24 08:30:35;;;;;;;40.83;14.48;;;;;;;;;;4937512;28;20042;-80
2022/01/24 08:33:03;;;;;;;37.33;14.40;;;;;;;;;;4951794;28;20085;-79
2022/01/24 08:35:31;;;;;;;39.08;15.05;;;;;;;;;;4966629;28;20074;-79
2022/01/24 08:37:59;;;;;;;46.85;16.92;;;;;;;;;;4968474;28;20038;-81
2022/01/24 08:40:30;;;;;;;43.35;17.15;;;;;;;;;;4965235;28;20045;-80
2022/01/24 08:45:58;;;;;;;39.28;16.17;;;;;;;;;;4968443;28;20042;-80
2022/01/24 08:48:29;;;;;;;40.00;14.98;;;;;;;;;;4952605;28;20125;-80
2022/01/24 08:50:59;;;;;;;41.70;17.08;;;;;;;;;;4969909;28;20061;-80
2022/01/24 08:53:33;;;;;;;42.53;15.95;;;;;;;;;;4973825;28;20550;-81
2022/01/24 08:56:04;;;;;;;43.03;16.73;;;;;;;;;;4970073;28;20038;-81
2022/01/24 08:58:32;;;;;;;43.38;16.90;;;;;;;;;;4956697;28;20146;-81
2022/01/24 09:01:01;;;;;;;43.38;17.20;;;;;;;;;;4962278;28;20063;-81
2022/01/24 09:03:32;;;;;;;46.78;17.58;;;;;;;;;;4979698;28;20030;-81
2022/01/24 09:06:01;;;;;;;44.45;16.58;;;;;;;;;;4986684;28;20161;-80
2022/01/24 09:08:30;;;;;;;45.63;17.00;;;;;;;;;;4963687;28;20027;-80
2022/01/24 09:10:57;;;;;;;43.70;17.35;;;;;;;;;;4982767;28;20051;-82
2022/01/24 09:13:25;;;;;;;39.80;17.00;;;;;;;;;;4947409;28;20031;-82
2022/01/24 09:15:53;;;;;;;41.05;17.08;;;;;;;;;;4983381;28;20058;-81
2022/01/24 09:18:21;;;;;;;47.08;17.17;;;;;;;;;;4980022;28;20046;-82
2022/01/24 09:20:50;;;;;;;49.53;17.70;;;;;;;;;;4924026;28;20576;-82
2022/01/24 09:23:17;;;;;;;44.33;16.58;;;;;;;;;;4969831;28;20134;-82
2022/01/24 09:25:45;;;;;;;45.00;17.42;;;;;;;;;;4952903;28;20057;-81
2022/01/24 09:28:13;;;;;;;47.42;18.08;;;;;;;;;;4966428;28;20046;-81
2022/01/24 09:30:41;;;;;;;44.83;17.98;;;;;;;;;;4951216;28;20312;-80
2022/01/24 09:33:12;;;;;;;48.35;17.10;;;;;;;;;;4968435;28;20038;-80
2022/01/24 09:35:42;;;;;;;46.13;16.42;;;;;;;;;;4969313;28;20042;-81
2022/01/24 09:38:12;;;;;;;44.38;16.60;;;;;;;;;;4936557;28;20043;-80
2022/01/24 09:40:39;;;;;;;43.85;17.75;;;;;;;;;;4968379;28;20102;-81
2022/01/24 09:43:07;;;;;;;43.85;17.20;;;;;;;;;;4954347;28;20038;-81
2022/01/24 09:45:36;;;;;;;44.85;17.45;;;;;;;;;;4968762;28;20047;-80
2022/01/24 09:48:03;;;;;;;41.75;17.00;;;;;;;;;;4951480;28;20049;-81
2022/01/24 09:50:31;;;;;;;43.00;16.33;;;;;;;;;;4968750;28;20384;-81
2022/01/24 09:52:59;;;;;;;42.67;17.98;;;;;;;;;;4950831;28;20047;-82
2022/01/24 09:55:27;;;;;;;47.92;18.90;;;;;;;;;;4957674;28;20038;-81
2022/01/24 09:57:55;;;;;;;46.42;17.67;;;;;;;;;;4949869;28;20488;-81
2022/01/24 10:00:26;;;;;;;46.67;18.83;;;;;;;;;;4937758;28;20043;-81
2022/01/24 10:02:53;;;;;;;43.55;17.88;;;;;;;;;;4950336;28;20035;-83
2022/01/24 10:05:42;;;;;;;55.53;18.58;;;;;;;;;;4966059;28;20130;-81
2022/01/24 10:08:30;;;;;;;46.78;18.40;;;;;;;;;;4936235;28;20038;-82
2022/01/24 10:11:02;;;;;;;50.67;19.10;;;;;;;;;;4950601;28;20039;-81
2022/01/24 10:16:46;;;;;;;48.70;17.98;;;;;;;;;;4926175;29;20473;-80
2022/01/24 10:19:18;;;;;;;50.78;18.30;;;;;;;;;;4926055;29;20043;-82
2022/01/24 10:22:03;;;;;;;44.15;16.02;;;;;;;;;;4925091;29;20747;-80
2022/01/24 10:24:42;;;;;;;49.58;19.00;;;;;;;;;;4925913;29;20142;-81
2022/01/24 10:27:24;;;;;;;52.65;18.63;;;;;;;;;;4925962;29;20043;-81
2022/01/24 10:29:59;;;;;;;51.47;17.85;;;;;;;;;;4908791;29;20043;-81
2022/01/24 10:32:32;;;;;;;48.75;17.33;;;;;;;;;;4926402;29;20067;-81
2022/01/24 10:35:27;;;;;;;48.92;17.15;;;;;;;;;;4910427;29;20059;-82
2022/01/24 10:41:06;;;;;;;50.10;17.65;;;;;;;;;;4926103;29;21204;-80
2022/01/24 10:43:37;;;;;;;44.78;16.95;;;;;;;;;;4922517;29;20047;-81
2022/01/24 10:46:06;;;;;;;46.20;17.45;;;;;;;;;;4908157;29;20040;-80
2022/01/24 10:48:39;;;;;;;49.65;17.58;;;;;;;;;;4943112;28;20160;-80
2022/01/24 10:51:20;;;;;;;50.08;17.38;;;;;;;;;;4949750;28;20132;-81
2022/01/24 10:53:56;;;;;;;47.15;19.10;;;;;;;;;;4947860;28;20611;-80
2022/01/24 10:56:34;;;;;;;48.05;16.77;;;;;;;;;;4965051;28;20042;-80
2022/01/24 10:59:21;;;;;;;45.90;18.00;;;;;;;;;;4966293;28;20070;-81
2022/01/24 11:01:54;;;;;;;49.78;16.95;;;;;;;;;;4970717;28;20448;-80
2022/01/24 11:04:26;;;;;;;44.00;16.67;;;;;;;;;;4934914;28;20626;-82
2022/01/24 11:07:01;;;;;;;41.72;15.57;;;;;;;;;;4949608;28;20093;-80
2022/01/24 11:09:30;;;;;;;44.22;15.98;;;;;;;;;;4967443;28;20039;-80
2022/01/24 11:12:05;;;;;;;44.17;14.75;;;;;;;;;;4964911;28;20070;-80
2022/01/24 11:14:35;;;;;;;40.28;15.13;;;;;;;;;;4948539;28;20658;-82
2022/01/24 11:17:05;;;;;;;45.63;17.05;;;;;;;;;;4963496;28;20054;-81
2022/01/24 11:19:40;;;;;;;44.63;16.00;;;;;;;;;;4967857;28;20142;-82
2022/01/24 11:22:18;;;;;;;46.60;15.27;;;;;;;;;;4950576;28;20041;-82
2022/01/24 11:25:00;;;;;;;45.40;15.20;;;;;;;;;;4963044;28;20523;-81
2022/01/24 11:27:39;;;;;;;49.20;17.00;;;;;;;;;;4936062;28;20110;-83
2022/01/24 11:30:15;;;;;;;44.40;16.63;;;;;;;;;;4953438;28;20531;-82
2022/01/24 11:33:01;;;;;;;48.70;16.05;;;;;;;;;;4954833;28;20042;-82
2022/01/24 11:35:43;;;;;;;50.53;17.30;;;;;;;;;;4973325;28;20072;-83
2022/01/24 11:38:29;;;;;;;43.42;15.25;;;;;;;;;;4971583;28;20034;-84
2022/01/24 11:41:23;;;;;;;44.92;15.63;;;;;;;;;;4967757;28;20105;-84
2022/01/24 11:44:00;;;;;;;40.45;14.85;;;;;;;;;;4952887;28;20039;-83
2022/01/24 11:46:45;;;;;;;41.75;14.23;;;;;;;;;;4962426;28;20046;-83
2022/01/24 11:49:22;;;;;;;43.22;15.93;;;;;;;;;;4949264;28;20061;-84
2022/01/24 11:52:13;;;;;;;45.55;15.98;;;;;;;;;;4970335;28;20047;-84
2022/01/24 11:57:24;;;;;;;48.40;16.90;;;;;;;;;;4963429;28;20049;-85
2022/01/24 12:00:12;;;;;;;42.78;16.45;;;;;;;;;;4971598;28;20125;-84
2022/01/24 12:02:44;;;;;;;47.60;16.30;;;;;;;;;;4954117;28;20074;-84
2022/01/24 12:05:25;;;;;;;44.50;15.93;;;;;;;;;;4969572;28;20046;-84
2022/01/24 12:07:59;;;;;;;48.78;16.83;;;;;;;;;;4950768;28;20448;-83
2022/01/24 12:10:45;;;;;;;46.25;17.77;;;;;;;;;;4967313;28;20039;-83
2022/01/24 12:13:27;;;;;;;48.22;17.30;;;;;;;;;;4966812;28;20041;-84
2022/01/24 12:15:57;;;;;;;50.60;17.58;;;;;;;;;;4968941;28;20216;-84
2022/01/24 12:18:28;;;;;;;47.95;18.60;;;;;;;;;;4969855;28;20039;-83
2022/01/24 12:21:06;;;;;;;46.67;17.48;;;;;;;;;;4971972;28;20053;-84
2022/01/24 12:23:35;;;;;;;51.25;18.33;;;;;;;;;;4970969;28;20093;-83
2022/01/24 12:26:27;;;;;;;53.22;18.42;;;;;;;;;;4935198;28;20043;-82
2022/01/24 12:29:10;;;;;;;54.75;18.85;;;;;;;;;;4954685;28;20039;-82
2022/01/24 12:31:50;;;;;;;50.05;19.02;;;;;;;;;;4974657;28;20061;-82
2022/01/24 12:34:38;;;;;;;58.28;20.30;;;;;;;;;;4960539;28;20054;-83
2022/01/24 12:37:10;;;;;;;56.38;20.98;;;;;;;;;;4985255;28;20039;-83
2022/01/24 12:39:50;;;;;;;57.75;19.92;;;;;;;;;;4983382;28;20049;-82
2022/01/24 12:42:32;;;;;;;59.08;18.00;;;;;;;;;;4968409;28;20035;-84
2022/01/24 12:48:03;;;;;;;47.53;18.52;;;;;;;;;;4941834;28;20863;-85
2022/01/24 12:50:31;;;;;;;53.83;19.85;;;;;;;;;;4975225;28;20047;-82
2022/01/24 12:52:59;;;;;;;52.97;19.08;;;;;;;;;;4950961;28;21092;-82
2022/01/24 12:55:27;;;;;;;49.55;18.00;;;;;;;;;;4955739;28;20065;-81
2022/01/24 12:57:55;;;;;;;54.92;18.85;;;;;;;;;;4956812;28;20093;-82
2022/01/24 13:00:23;;;;;;;51.45;18.13;;;;;;;;;;4969357;28;20996;-81
2022/01/24 13:02:51;;;;;;;49.38;18.40;;;;;;;;;;4923903;28;20050;-81
2022/01/24 13:05:23;;;;;;;48.08;18.45;;;;;;;;;;4971501;28;20153;-80
2022/01/24 13:07:56;;;;;;;48.55;18.20;;;;;;;;;;4967119;28;20070;-81
2022/01/24 13:10:28;;;;;;;56.40;20.08;;;;;;;;;;4968738;28;20133;-82
2022/01/24 13:13:10;;;;;;;49.47;18.13;;;;;;;;;;4935944;28;20206;-82
2022/01/24 13:21:28;;;;;;;43.95;18.05;;;;;;;;;;4965375;28;20051;-81
2022/01/24 13:24:01;;;;;;;42.42;17.67;;;;;;;;;;4964437;28;20046;-82
2022/01/24 13:26:29;;;;;;;51.30;17.90;;;;;;;;;;4966519;28;20047;-82
2022/01/24 13:29:04;;;;;;;46.25;18.85;;;;;;;;;;4970457;28;20412;-83
2022/01/24 13:31:31;;;;;;;49.05;17.48;;;;;;;;;;4971608;28;20877;-81
2022/01/24 13:33:59;;;;;;;38.15;15.60;;;;;;;;;;4952480;28;20095;-81
2022/01/24 13:36:27;;;;;;;36.70;14.93;;;;;;;;;;4967359;28;20045;-82
2022/01/24 13:38:55;;;;;;;42.58;15.55;;;;;;;;;;4950778;28;20112;-81
2022/01/24 13:41:23;;;;;;;38.22;15.65;;;;;;;;;;4965597;28;20804;-83
2022/01/24 13:43:58;;;;;;;40.38;15.40;;;;;;;;;;4966700;28;20126;-82
2022/01/24 13:46:32;;;;;;;37.63;15.85;;;;;;;;;;4951479;28;20042;-82
2022/01/24 13:49:04;;;;;;;32.97;13.70;;;;;;;;;;4948147;28;20483;-83
2022/01/24 13:51:43;;;;;;;36.47;13.60;;;;;;;;;;4948271;28;20047;-82
2022/01/24 13:54:12;;;;;;;34.35;13.60;;;;;;;;;;4965352;28;21088;-82
2022/01/24 13:56:51;;;;;;;32.10;12.90;;;;;;;;;;4969129;28;20078;-81
2022/01/24 13:59:27;;;;;;;36.80;13.52;;;;;;;;;;4961664;28;20042;-82
2022/01/24 14:02:10;;;;;;;30.55;13.60;;;;;;;;;;4966018;28;20051;-81
2022/01/24 14:04:37;;;;;;;33.25;14.45;;;;;;;;;;4968280;28;20096;-81
2022/01/24 14:07:09;;;;;;;36.25;15.07;;;;;;;;;;4948542;28;20034;-81
2022/01/24 14:09:50;;;;;;;37.13;14.15;;;;;;;;;;4963619;28;20067;-80
2022/01/24 14:12:20;;;;;;;32.47;13.60;;;;;;;;;;4966902;28;20054;-81
2022/01/24 14:15:01;;;;;;;35.00;14.18;;;;;;;;;;4960978;28;20404;-80
2022/01/24 14:20:03;;;;;;;38.08;13.80;;;;;;;;;;4968122;28;20042;-81
2022/01/24 14:22:47;;;;;;;40.22;14.93;;;;;;;;;;4962272;28;20058;-81
2022/01/24 14:25:17;;;;;;;39.30;13.65;;;;;;;;;;4962580;28;20039;-81
2022/01/24 14:27:50;;;;;;;36.97;14.63;;;;;;;;;;4964355;28;20121;-80
2022/01/24 14:30:42;;;;;;;39.63;15.15;;;;;;;;;;4947325;28;20053;-82
2022/01/24 14:33:30;;;;;;;38.80;14.77;;;;;;;;;;4963452;28;20080;-81
2022/01/24 14:36:00;;;;;;;40.95;16.30;;;;;;;;;;4948041;28;20106;-82
2022/01/24 14:38:33;;;;;;;43.83;16.67;;;;;;;;;;4966491;28;20051;-82
2022/01/24 14:41:05;;;;;;;41.13;15.52;;;;;;;;;;4964327;28;20064;-82
2022/01/24 14:46:36;;;;;;;38.15;14.85;;;;;;;;;;4963441;28;20481;-82
2022/01/24 14:49:08;;;;;;;41.55;15.75;;;;;;;;;;4960862;28;20591;-81
2022/01/24 14:51:39;;;;;;;40.55;14.65;;;;;;;;;;4961977;28;20161;-81
2022/01/24 14:54:10;;;;;;;40.47;15.18;;;;;;;;;;4962451;28;20038;-82
2022/01/24 14:56:42;;;;;;;36.38;14.95;;;;;;;;;;4962208;28;20058;-81
2022/01/24 14:59:11;;;;;;;39.53;14.23;;;;;;;;;;4965112;28;20105;-81
2022/01/24 15:01:39;;;;;;;36.33;14.07;;;;;;;;;;4946235;28;20051;-81
2022/01/24 15:04:07;;;;;;;36.90;15.02;;;;;;;;;;4962233;28;20524;-82
2022/01/24 15:06:35;;;;;;;35.70;14.68;;;;;;;;;;4943502;28;20063;-81
2022/01/24 15:09:07;;;;;;;41.08;14.48;;;;;;;;;;4950834;28;20035;-82
2022/01/24 15:11:36;;;;;;;35.28;14.25;;;;;;;;;;4967975;28;20047;-82
2022/01/24 15:14:15;;;;;;;34.78;12.65;;;;;;;;;;4963894;28;20146;-81
2022/01/24 15:17:17;;;;;;;33.95;13.48;;;;;;;;;;4963703;28;20039;-82
2022/01/24 15:27:45;;;;;;;31.55;12.82;;;;;;;;;;4949175;28;20138;-82
2022/01/24 15:30:15;;;;;;;32.97;13.52;;;;;;;;;;4965934;28;20061;-82
2022/01/24 15:32:58;;;;;;;35.50;14.27;;;;;;;;;;4966329;28;20066;-81
2022/01/24 15:35:28;;;;;;;37.72;14.05;;;;;;;;;;4949528;28;20126;-82
2022/01/24 15:37:59;;;;;;;31.30;12.02;;;;;;;;;;4948625;28;20058;-82
2022/01/24 15:40:28;;;;;;;31.10;12.80;;;;;;;;;;4951908;28;20049;-81
2022/01/24 15:43:11;;;;;;;31.73;13.27;;;;;;;;;;4951531;28;20035;-81
2022/01/24 15:45:59;;;;;;;35.55;13.60;;;;;;;;;;4978204;28;20034;-81
2022/01/24 15:48:27;;;;;;;29.05;12.70;;;;;;;;;;4956449;28;20065;-82
2022/01/24 15:50:55;;;;;;;26.48;11.60;;;;;;;;;;4982588;28;20043;-83
2022/01/24 15:53:23;;;;;;;25.73;10.90;;;;;;;;;;4965241;28;20039;-83
2022/01/24 15:56:16;;;;;;;27.60;12.13;;;;;;;;;;4984682;28;20029;-82
2022/01/24 15:58:39;;;;;;;23.00;11.32;;;;;;;;;;4981591;28;20126;-83
2022/01/24 16:01:07;;;;;;;28.23;12.10;;;;;;;;;;4972873;28;20484;-83
2022/01/24 16:03:35;;;;;;;27.80;11.77;;;;;;;;;;4953108;28;20070;-84
2022/01/24 16:06:03;;;;;;;26.17;10.82;;;;;;;;;;4951281;28;20030;-83
2022/01/24 16:08:31;;;;;;;30.80;12.20;;;;;;;;;;4938252;28;20050;-82
2022/01/24 16:10:59;;;;;;;25.88;10.63;;;;;;;;;;4968329;28;20058;-82
2022/01/24 16:13:29;;;;;;;28.45;11.30;;;;;;;;;;4967168;28;20051;-82
2022/01/24 16:15:57;;;;;;;25.67;11.38;;;;;;;;;;4962423;28;20066;-81
2022/01/24 16:18:25;;;;;;;26.60;11.38;;;;;;;;;;4962913;28;20042;-79
2022/01/24 16:23:31;;;;;;;23.45;11.18;;;;;;;;;;4962288;28;20050;-80
2022/01/24 16:25:59;;;;;;;23.63;9.93;;;;;;;;;;4962243;28;20042;-80
2022/01/24 16:28:31;;;;;;;23.55;10.00;;;;;;;;;;4963162;28;20047;-80
2022/01/24 16:31:06;;;;;;;26.08;10.57;;;;;;;;;;4950848;28;20057;-80
2022/01/24 16:33:36;;;;;;;28.20;10.98;;;;;;;;;;4969352;28;20051;-83
2022/01/24 16:36:10;;;;;;;29.55;10.80;;;;;;;;;;4966377;28;20062;-84
2022/01/24 16:38:40;;;;;;;26.95;11.20;;;;;;;;;;4954389;28;20050;-83
2022/01/24 16:41:45;;;;;;;25.23;10.43;;;;;;;;;;4959316;28;20130;-85
2022/01/24 16:44:15;;;;;;;27.48;10.20;;;;;;;;;;4961758;28;20039;-84
2022/01/24 16:47:03;;;;;;;24.85;10.85;;;;;;;;;;4965564;28;20066;-84
2022/01/24 16:49:31;;;;;;;22.95;9.48;;;;;;;;;;4945107;28;20551;-85
2022/01/24 16:51:59;;;;;;;24.17;10.40;;;;;;;;;;4963685;28;20050;-84
2022/01/24 16:54:29;;;;;;;22.30;9.80;;;;;;;;;;4964534;28;20038;-85
2022/01/24 16:56:57;;;;;;;24.52;10.45;;;;;;;;;;4964978;28;20062;-85
2022/01/24 16:59:25;;;;;;;32.53;11.10;;;;;;;;;;4965333;28;20042;-85
2022/01/24 17:01:53;;;;;;;24.73;11.27;;;;;;;;;;4970171;28;20030;-85
2022/01/24 17:04:22;;;;;;;21.63;10.32;;;;;;;;;;4965412;28;20106;-85
2022/01/24 17:06:50;;;;;;;22.77;9.30;;;;;;;;;;4966646;28;20050;-86
